createdAt,value
2022-08-25T00:01:30.451Z,11.02
2022-08-25T00:04:00.708Z,9.23
2022-08-25T00:06:29.139Z,11.05
2022-08-25T00:08:59.655Z,8.00
2022-08-25T00:11:28.493Z,8.63
2022-08-25T00:13:58.373Z,13.93
2022-08-25T00:16:26.534Z,9.50
2022-08-25T00:18:55.574Z,8.93
2022-08-25T00:21:23.100Z,9.27
2022-08-25T00:23:50.519Z,9.77
2022-08-25T00:26:17.898Z,12.43
2022-08-25T00:28:45.671Z,11.00
2022-08-25T00:31:14.605Z,11.07
2022-08-25T00:33:42.068Z,9.45
2022-08-25T00:36:12.214Z,10.82
2022-08-25T00:38:40.435Z,13.95
2022-08-25T00:41:08.677Z,13.93
2022-08-25T00:43:42.426Z,7.43
2022-08-25T00:46:10.634Z,10.80
2022-08-25T00:48:39.866Z,11.68
2022-08-25T00:51:08.478Z,11.73
2022-08-25T00:53:35.961Z,13.48
2022-08-25T00:56:03.293Z,12.48
2022-08-25T00:58:32.190Z,8.48
2022-08-25T01:01:00.179Z,11.25
2022-08-25T01:03:30.512Z,9.65
2022-08-25T01:06:01.490Z,10.35
2022-08-25T01:08:29.826Z,11.32
2022-08-25T01:11:01.465Z,8.07
2022-08-25T01:13:39.814Z,11.20
2022-08-25T01:16:07.313Z,10.82
2022-08-25T01:18:44.891Z,7.93
2022-08-25T01:21:12.155Z,10.50
2022-08-25T01:23:39.401Z,10.43
2022-08-25T01:26:10.787Z,12.27
2022-08-25T01:28:38.307Z,7.93
2022-08-25T01:31:23.508Z,10.10
2022-08-25T01:33:51.953Z,11.02
2022-08-25T01:36:20.071Z,11.18
2022-08-25T01:38:47.286Z,15.80
2022-08-25T01:41:17.601Z,9.75
2022-08-25T01:43:45.550Z,13.25
2022-08-25T01:46:12.944Z,14.77
2022-08-25T01:48:40.334Z,7.90
2022-08-25T01:51:07.533Z,10.43
2022-08-25T01:53:34.985Z,8.38
2022-08-25T01:56:11.511Z,9.25
2022-08-25T01:58:40.829Z,13.68
2022-08-25T02:01:10.001Z,12.05
2022-08-25T02:03:41.989Z,9.00
2022-08-25T02:06:10.754Z,13.32
2022-08-25T02:08:38.326Z,10.77
2022-08-25T02:11:05.618Z,8.43
2022-08-25T02:13:33.195Z,7.88
2022-08-25T02:16:02.298Z,7.00
2022-08-25T02:18:30.080Z,11.93
2022-08-25T02:20:57.270Z,9.18
2022-08-25T02:23:24.495Z,12.13
2022-08-25T02:25:51.858Z,9.73
2022-08-25T02:28:19.079Z,10.38
2022-08-25T02:30:47.950Z,8.75
2022-08-25T02:33:15.322Z,11.55
2022-08-25T02:35:42.525Z,9.35
2022-08-25T02:38:09.746Z,9.68
2022-08-25T02:40:37.134Z,10.40
2022-08-25T02:43:04.322Z,11.52
2022-08-25T02:45:31.631Z,10.52
2022-08-25T02:47:58.933Z,8.45
2022-08-25T02:50:26.295Z,11.20
2022-08-25T02:52:53.562Z,8.88
2022-08-25T02:55:20.810Z,9.77
2022-08-25T02:57:48.304Z,11.43
2022-08-25T03:00:16.734Z,10.75
2022-08-25T03:02:44.919Z,9.60
2022-08-25T03:05:13.699Z,9.82
2022-08-25T03:07:40.966Z,11.05
2022-08-25T03:10:10.905Z,18.67
2022-08-25T03:12:38.094Z,7.72
2022-08-25T03:15:05.746Z,8.32
2022-08-25T03:17:40.270Z,9.13
2022-08-25T03:20:08.438Z,10.15
2022-08-25T03:22:36.381Z,12.15
2022-08-25T03:25:24.253Z,8.95
2022-08-25T03:27:51.967Z,10.02
2022-08-25T03:30:19.918Z,8.52
2022-08-25T03:32:47.227Z,10.23
2022-08-25T03:35:14.424Z,11.38
2022-08-25T03:37:41.694Z,15.23
2022-08-25T03:40:10.183Z,9.75
2022-08-25T03:42:45.020Z,12.75
2022-08-25T03:45:13.928Z,10.35
2022-08-25T03:47:42.183Z,9.07
2022-08-25T03:50:11.046Z,11.50
2022-08-25T03:52:42.466Z,10.63
2022-08-25T03:55:11.286Z,11.43
2022-08-25T03:57:38.667Z,10.95
2022-08-25T04:00:08.170Z,10.52
2022-08-25T04:02:35.433Z,9.95
2022-08-25T04:05:02.881Z,8.80
2022-08-25T04:07:30.080Z,8.13
2022-08-25T04:09:57.322Z,14.65
2022-08-25T04:12:24.688Z,13.25
2022-08-25T04:14:51.866Z,10.38
2022-08-25T04:17:19.220Z,11.02
2022-08-25T04:19:46.586Z,13.82
2022-08-25T04:22:13.750Z,10.73
2022-08-25T04:24:41.233Z,12.13
2022-08-25T04:27:08.499Z,12.85
2022-08-25T04:29:35.908Z,8.68
2022-08-25T04:32:03.244Z,12.80
2022-08-25T04:34:31.519Z,13.30
2022-08-25T04:37:03.143Z,9.85
2022-08-25T04:39:31.086Z,8.68
2022-08-25T04:42:00.411Z,10.32
2022-08-25T04:44:27.909Z,8.90
2022-08-25T04:46:55.211Z,11.02
2022-08-25T04:49:22.403Z,10.93
2022-08-25T04:51:49.598Z,8.20
2022-08-25T04:54:17.915Z,11.57
2022-08-25T04:56:45.167Z,11.50
2022-08-25T04:59:13.239Z,14.00
2022-08-25T05:01:42.741Z,11.43
2022-08-25T05:04:14.616Z,11.27
2022-08-25T05:06:55.194Z,10.70
2022-08-25T05:09:22.382Z,12.20
2022-08-25T05:11:49.554Z,11.98
2022-08-25T05:14:21.708Z,10.15
2022-08-25T05:16:53.071Z,11.40
2022-08-25T05:19:20.349Z,10.38
2022-08-25T05:21:48.142Z,10.32
2022-08-25T05:24:15.409Z,16.25
2022-08-25T05:26:44.117Z,12.20
2022-08-25T05:29:11.769Z,11.00
2022-08-25T05:31:43.172Z,10.60
2022-08-25T05:34:12.268Z,10.10
2022-08-25T05:36:43.381Z,13.07
2022-08-25T05:39:11.173Z,10.65
2022-08-25T05:41:38.436Z,9.98
2022-08-25T05:44:05.892Z,13.68
2022-08-25T05:46:33.461Z,10.98
2022-08-25T05:49:01.134Z,13.48
2022-08-25T05:51:28.770Z,8.57
2022-08-25T05:53:56.017Z,11.40
2022-08-25T05:56:23.321Z,9.93
2022-08-25T05:58:50.590Z,10.93
2022-08-25T06:01:47.088Z,9.65
2022-08-25T06:04:14.894Z,10.65
2022-08-25T06:06:42.110Z,9.70
2022-08-25T06:09:09.766Z,8.63
2022-08-25T06:11:40.677Z,9.70
2022-08-25T06:14:09.012Z,12.00
2022-08-25T06:16:36.609Z,8.98
2022-08-25T06:19:03.862Z,14.25
2022-08-25T06:21:31.054Z,9.25
2022-08-25T06:23:58.341Z,10.30
2022-08-25T06:26:25.678Z,10.50
2022-08-25T06:28:53.896Z,13.15
2022-08-25T06:31:22.554Z,11.57
2022-08-25T06:33:50.302Z,11.13
2022-08-25T06:36:17.514Z,9.98
2022-08-25T06:38:44.993Z,8.57
2022-08-25T06:41:12.730Z,11.05
2022-08-25T06:43:45.053Z,14.57
2022-08-25T06:46:20.547Z,9.30
2022-08-25T06:48:47.990Z,13.10
2022-08-25T06:51:16.190Z,11.15
2022-08-25T06:53:44.603Z,11.25
2022-08-25T06:56:12.149Z,10.63
2022-08-25T06:58:39.920Z,12.63
2022-08-25T07:01:27.604Z,11.65
2022-08-25T07:03:59.762Z,12.27
2022-08-25T07:06:28.233Z,12.90
2022-08-25T07:08:55.679Z,9.45
2022-08-25T07:11:22.984Z,11.68
2022-08-25T07:13:50.641Z,9.10
2022-08-25T07:16:18.708Z,13.57
2022-08-25T07:18:46.307Z,11.18
2022-08-25T07:21:14.514Z,12.00
2022-08-25T07:23:42.650Z,12.70
2022-08-25T07:26:27.161Z,13.15
2022-08-25T07:28:59.812Z,11.03
2022-08-25T07:31:29.512Z,15.20
2022-08-25T07:34:16.367Z,10.70
2022-08-25T07:36:43.938Z,10.02
2022-08-25T07:39:11.469Z,12.35
2022-08-25T07:41:40.168Z,9.95
2022-08-25T07:44:08.093Z,13.83
2022-08-25T07:46:35.367Z,13.20
2022-08-25T07:49:02.738Z,10.32
2022-08-25T07:51:30.000Z,10.43
2022-08-25T07:53:57.221Z,11.70
2022-08-25T07:56:24.804Z,9.77
2022-08-25T07:58:52.097Z,8.65
2022-08-25T08:01:20.876Z,10.35
2022-08-25T08:03:50.354Z,14.10
2022-08-25T08:06:19.568Z,9.68
2022-08-25T08:08:49.629Z,9.50
2022-08-25T08:11:17.802Z,11.55
2022-08-25T08:13:46.663Z,10.27
2022-08-25T08:16:15.243Z,9.40
2022-08-25T08:18:43.288Z,8.88
2022-08-25T08:21:19.866Z,13.30
2022-08-25T08:23:48.507Z,9.93
2022-08-25T08:26:16.991Z,12.55
2022-08-25T08:28:44.654Z,9.55
2022-08-25T08:31:23.292Z,11.43
2022-08-25T08:33:51.449Z,9.90
2022-08-25T08:36:18.852Z,8.95
2022-08-25T08:38:47.692Z,9.25
2022-08-25T08:41:54.263Z,12.13
2022-08-25T08:44:38.777Z,7.90
2022-08-25T08:47:08.896Z,10.75
2022-08-25T08:49:39.590Z,8.50
2022-08-25T08:52:09.315Z,9.38
2022-08-25T08:54:39.161Z,7.82
2022-08-25T08:57:20.401Z,7.97
2022-08-25T08:59:55.646Z,9.82
2022-08-25T09:02:51.631Z,9.38
2022-08-25T09:05:20.877Z,10.52
2022-08-25T09:07:54.708Z,10.60
2022-08-25T09:10:25.337Z,9.65
2022-08-25T09:12:55.074Z,10.98
2022-08-25T09:15:54.686Z,10.63
2022-08-25T09:18:31.550Z,5.88
2022-08-25T09:21:28.343Z,10.27
2022-08-25T09:24:15.740Z,7.13
2022-08-25T09:26:55.098Z,8.60
2022-08-25T09:29:26.244Z,6.68
2022-08-25T09:31:57.529Z,9.13
2022-08-25T09:34:29.155Z,11.80
2022-08-25T09:36:56.971Z,7.47
2022-08-25T09:39:24.339Z,9.13
2022-08-25T09:41:59.328Z,8.73
2022-08-25T09:44:45.915Z,8.20
2022-08-25T09:47:19.948Z,6.80
2022-08-25T09:49:47.480Z,7.30
2022-08-25T09:52:20.766Z,6.78
2022-08-25T09:54:49.877Z,5.30
2022-08-25T09:57:29.239Z,9.13
2022-08-25T09:59:57.779Z,11.50
2022-08-25T10:02:29.210Z,8.70
2022-08-25T10:04:57.163Z,5.63
2022-08-25T10:07:29.182Z,7.28
2022-08-25T10:09:57.755Z,8.07
2022-08-25T10:12:42.388Z,5.07
2022-08-25T10:15:29.195Z,6.35
2022-08-25T10:17:59.978Z,7.43
2022-08-25T10:20:33.069Z,5.97
2022-08-25T10:23:13.353Z,5.30
2022-08-25T10:25:57.620Z,6.90
2022-08-25T10:28:41.661Z,7.97
2022-08-25T10:31:34.973Z,8.50
2022-08-25T10:34:08.183Z,7.38
2022-08-25T10:36:42.213Z,7.50
2022-08-25T10:39:34.204Z,4.50
2022-08-25T10:42:17.274Z,6.38
2022-08-25T10:45:21.645Z,10.05
2022-08-25T10:47:49.189Z,7.55
2022-08-25T10:50:35.817Z,5.25
2022-08-25T10:53:21.836Z,6.15
2022-08-25T10:56:07.909Z,6.07
2022-08-25T10:58:35.140Z,5.75
2022-08-25T11:01:02.357Z,6.35
2022-08-25T11:03:35.270Z,5.97
2022-08-25T11:06:08.010Z,5.60
2022-08-25T11:08:42.935Z,5.50
2022-08-25T11:11:39.188Z,5.95
2022-08-25T11:14:11.269Z,4.10
2022-08-25T11:16:49.235Z,6.55
2022-08-25T11:19:21.397Z,7.28
2022-08-25T11:22:01.115Z,4.97
2022-08-25T11:24:46.838Z,6.95
2022-08-25T11:27:17.584Z,5.85
2022-08-25T11:29:54.896Z,6.07
2022-08-25T11:32:24.779Z,5.65
2022-08-25T11:34:53.557Z,6.05
2022-08-25T11:37:28.057Z,5.00
2022-08-25T11:40:13.618Z,5.97
2022-08-25T11:42:50.734Z,7.72
2022-08-25T11:45:36.716Z,6.38
2022-08-25T11:48:17.821Z,6.47
2022-08-25T11:50:57.680Z,7.25
2022-08-25T11:53:28.120Z,6.30
2022-08-25T11:55:58.755Z,6.03
2022-08-25T11:58:32.290Z,6.18
2022-08-25T12:01:00.508Z,5.15
2022-08-25T12:03:36.367Z,6.20
2022-08-25T12:06:22.448Z,7.28
2022-08-25T12:08:51.142Z,6.07
2022-08-25T12:11:47.384Z,6.95
2022-08-25T12:14:16.249Z,7.95
2022-08-25T12:16:45.764Z,6.05
2022-08-25T12:19:32.742Z,9.82
2022-08-25T12:22:03.256Z,7.40
2022-08-25T12:24:48.784Z,6.25
2022-08-25T12:27:21.839Z,5.35
2022-08-25T12:29:51.836Z,5.22
2022-08-25T12:32:37.557Z,5.13
2022-08-25T12:35:23.653Z,7.97
2022-08-25T12:37:55.200Z,9.48
2022-08-25T12:40:32.262Z,5.65
2022-08-25T12:43:08.367Z,6.72
2022-08-25T12:45:35.714Z,8.80
2022-08-25T12:48:21.690Z,8.00
2022-08-25T12:50:57.842Z,7.70
2022-08-25T12:53:42.136Z,6.78
2022-08-25T12:56:30.531Z,7.90
2022-08-25T12:59:03.978Z,9.70
2022-08-25T13:01:43.139Z,7.53
2022-08-25T13:04:16.721Z,5.82
2022-08-25T13:06:44.153Z,8.65
2022-08-25T13:09:31.502Z,5.05
2022-08-25T13:12:06.537Z,8.68
2022-08-25T13:14:41.737Z,5.32
2022-08-25T13:17:11.853Z,8.32
2022-08-25T13:19:39.312Z,8.52
2022-08-25T13:22:17.773Z,7.70
2022-08-25T13:24:47.456Z,6.32
2022-08-25T13:27:28.638Z,10.65
2022-08-25T13:29:58.113Z,6.38
2022-08-25T13:32:35.653Z,8.07
2022-08-25T13:35:17.555Z,6.82
2022-08-25T13:37:47.011Z,6.93
2022-08-25T13:40:19.212Z,6.78
2022-08-25T13:42:54.359Z,5.85
2022-08-25T13:45:40.921Z,6.03
2022-08-25T13:48:23.080Z,6.13
2022-08-25T13:50:52.096Z,8.73
2022-08-25T13:53:24.114Z,6.67
2022-08-25T13:56:02.173Z,11.35
2022-08-25T13:58:44.416Z,6.97
2022-08-25T14:01:22.671Z,9.10
2022-08-25T14:04:22.768Z,5.93
2022-08-25T14:06:50.452Z,6.55
2022-08-25T14:09:28.206Z,5.97
2022-08-25T14:11:58.835Z,7.47
2022-08-25T14:17:16.308Z,9.52
2022-08-25T14:19:48.909Z,5.15
2022-08-25T14:22:16.469Z,9.07
2022-08-25T14:24:43.893Z,10.52
2022-08-25T14:27:11.926Z,6.82
2022-08-25T14:29:41.311Z,4.72
2022-08-25T14:32:08.654Z,7.05
2022-08-25T14:34:37.995Z,7.25
2022-08-25T14:37:10.688Z,8.73
2022-08-25T14:39:37.971Z,7.90
2022-08-25T14:42:05.773Z,9.73
2022-08-25T14:44:33.385Z,8.80
2022-08-25T14:47:01.940Z,7.82
2022-08-25T14:49:33.838Z,7.20
2022-08-25T14:52:05.168Z,8.38
2022-08-25T14:54:34.730Z,7.90
2022-08-25T14:57:04.467Z,7.35
2022-08-25T14:59:35.692Z,8.13
2022-08-25T15:02:11.043Z,6.57
2022-08-25T15:04:38.274Z,8.90
2022-08-25T15:07:29.761Z,6.05
2022-08-25T15:09:56.891Z,7.10
2022-08-25T15:12:45.947Z,6.45
2022-08-25T15:15:11.586Z,8.05
2022-08-25T15:17:41.954Z,6.82
2022-08-25T15:20:12.027Z,7.88
2022-08-25T15:22:39.723Z,6.22
2022-08-25T15:25:09.273Z,7.78
2022-08-25T15:27:36.889Z,6.18
2022-08-25T15:30:05.403Z,9.60
2022-08-25T15:32:32.590Z,8.18
2022-08-25T15:35:00.402Z,7.97
2022-08-25T15:37:27.716Z,6.40
2022-08-25T15:39:54.930Z,6.05
2022-08-25T15:42:23.357Z,7.25
2022-08-25T15:44:53.308Z,8.20
2022-08-25T15:47:21.654Z,7.90
2022-08-25T15:49:48.983Z,6.40
2022-08-25T15:52:17.146Z,9.55
2022-08-25T15:54:45.159Z,8.80
2022-08-25T15:57:18.073Z,6.10
2022-08-25T15:59:52.410Z,7.15
2022-08-25T16:02:20.728Z,10.43
2022-08-25T16:04:48.048Z,8.02
2022-08-25T16:07:15.199Z,6.30
2022-08-25T16:09:42.643Z,7.72
2022-08-25T16:12:11.186Z,8.15
2022-08-25T16:14:40.915Z,7.72
2022-08-25T16:17:08.209Z,6.95
2022-08-25T16:19:38.125Z,6.60
2022-08-25T16:22:06.599Z,7.43
2022-08-25T16:24:38.425Z,7.22
2022-08-25T16:27:11.367Z,5.65
2022-08-25T16:29:39.727Z,7.97
2022-08-25T16:32:07.363Z,5.82
2022-08-25T16:34:35.477Z,8.13
2022-08-25T16:37:03.283Z,8.02
2022-08-25T16:39:31.798Z,7.97
2022-08-25T16:41:59.406Z,7.00
2022-08-25T16:44:27.178Z,10.02
2022-08-25T16:46:55.259Z,12.73
2022-08-25T16:49:24.432Z,9.10
2022-08-25T16:51:57.415Z,9.57
2022-08-25T16:54:44.112Z,10.10
2022-08-25T16:57:11.491Z,10.43
2022-08-25T16:59:38.642Z,10.43
2022-08-25T17:02:06.541Z,9.18
2022-08-25T17:04:33.884Z,8.65
2022-08-25T17:07:01.904Z,7.60
2022-08-25T17:09:30.623Z,8.63
2022-08-25T17:11:58.091Z,10.23
2022-08-25T17:14:26.122Z,11.35
2022-08-25T17:16:56.488Z,12.20
2022-08-25T17:19:25.889Z,12.90
2022-08-25T17:21:55.083Z,13.48
2022-08-25T17:24:22.396Z,9.00
2022-08-25T17:26:56.994Z,12.13
2022-08-25T17:29:24.668Z,12.02
2022-08-25T17:31:51.845Z,13.27
2022-08-25T17:34:21.381Z,11.52
2022-08-25T17:36:51.165Z,9.10
2022-08-25T17:39:19.778Z,12.43
2022-08-25T17:41:49.680Z,11.13
2022-08-25T17:44:17.513Z,11.75
2022-08-25T17:46:47.596Z,10.90
2022-08-25T17:49:15.468Z,10.70
2022-08-25T17:51:42.891Z,10.95
2022-08-25T17:54:10.175Z,11.38
2022-08-25T17:56:38.488Z,8.85
2022-08-25T17:59:06.270Z,11.35
2022-08-25T18:01:35.152Z,10.60
2022-08-25T18:04:17.649Z,10.18
2022-08-25T18:06:45.819Z,12.98
2022-08-25T18:09:13.760Z,10.45
2022-08-25T18:11:40.917Z,10.05
2022-08-25T18:14:08.075Z,10.35
2022-08-25T18:16:38.443Z,10.27
2022-08-25T18:19:09.471Z,10.32
2022-08-25T18:21:37.368Z,11.10
2022-08-25T18:24:04.829Z,11.30
2022-08-25T18:26:32.071Z,10.52
2022-08-25T18:28:59.619Z,11.48
2022-08-25T18:31:26.937Z,9.57
2022-08-25T18:33:54.270Z,9.18
2022-08-25T18:36:21.507Z,10.15
2022-08-25T18:39:07.644Z,10.38
2022-08-25T18:41:37.144Z,9.95
2022-08-25T18:44:06.482Z,11.37
2022-08-25T18:46:33.765Z,10.60
2022-08-25T18:49:01.325Z,10.10
2022-08-25T18:51:28.621Z,13.85
2022-08-25T18:54:00.902Z,11.82
2022-08-25T18:56:28.512Z,10.90
2022-08-25T18:58:55.654Z,11.35
2022-08-25T19:01:23.032Z,9.60
2022-08-25T19:03:50.354Z,10.73
2022-08-25T19:06:18.022Z,10.05
2022-08-25T19:08:46.498Z,9.50
2022-08-25T19:11:13.772Z,9.55
2022-08-25T19:13:41.250Z,9.60
2022-08-25T19:16:20.422Z,12.13
2022-08-25T19:18:48.913Z,10.32
2022-08-25T19:21:22.518Z,12.00
2022-08-25T19:23:50.419Z,9.45
2022-08-25T19:26:18.570Z,9.35
2022-08-25T19:28:48.692Z,14.23
2022-08-25T19:31:16.433Z,12.48
2022-08-25T19:33:46.005Z,12.38
2022-08-25T19:36:14.062Z,11.43
2022-08-25T19:38:41.582Z,12.73
2022-08-25T19:41:14.020Z,14.95
2022-08-25T19:43:50.527Z,14.45
2022-08-25T19:46:25.048Z,13.95
2022-08-25T19:48:52.359Z,14.18
2022-08-25T19:51:21.889Z,14.88
2022-08-25T19:53:54.311Z,13.77
2022-08-25T19:56:23.137Z,14.15
2022-08-25T19:58:50.461Z,14.73
2022-08-25T20:01:18.484Z,13.73
2022-08-25T20:03:46.021Z,16.42
2022-08-25T20:06:15.757Z,14.30
2022-08-25T20:08:43.377Z,17.08
2022-08-25T20:11:10.986Z,13.18
2022-08-25T20:13:38.534Z,14.50
2022-08-25T20:16:05.951Z,18.75
2022-08-25T20:18:33.318Z,14.65
2022-08-25T20:21:00.904Z,13.10
2022-08-25T20:23:46.730Z,13.75
2022-08-25T20:26:13.925Z,16.92
2022-08-25T20:28:42.302Z,13.73
2022-08-25T20:31:09.707Z,16.60
2022-08-25T20:33:36.874Z,13.40
2022-08-25T20:36:04.891Z,14.48
2022-08-25T20:38:32.287Z,16.85
2022-08-25T20:41:01.324Z,12.63
2022-08-25T20:43:30.107Z,12.87
2022-08-25T20:46:01.903Z,13.63
2022-08-25T20:48:29.152Z,13.68
2022-08-25T20:50:57.770Z,11.75
2022-08-25T20:53:25.381Z,13.30
2022-08-25T20:55:52.579Z,15.48
2022-08-25T20:58:21.026Z,13.68
2022-08-25T21:00:48.396Z,13.60
2022-08-25T21:03:15.579Z,11.38
2022-08-25T21:05:43.341Z,17.92
2022-08-25T21:08:11.266Z,13.95
2022-08-25T21:10:38.471Z,11.95
2022-08-25T21:13:06.607Z,13.85
2022-08-25T21:15:33.826Z,10.32
2022-08-25T21:18:01.450Z,15.52
2022-08-25T21:20:28.698Z,12.60
2022-08-25T21:22:56.089Z,10.60
2022-08-25T21:25:24.119Z,13.00
2022-08-25T21:27:51.317Z,15.02
2022-08-25T21:30:18.625Z,14.15
2022-08-25T21:32:53.004Z,13.48
2022-08-25T21:35:21.305Z,11.32
2022-08-25T21:37:53.530Z,13.25
2022-08-25T21:40:21.313Z,12.07
2022-08-25T21:42:49.260Z,16.25
2022-08-25T21:45:17.067Z,11.05
2022-08-25T21:47:48.293Z,12.60
2022-08-25T21:50:15.487Z,11.50
2022-08-25T21:52:42.636Z,11.07
2022-08-25T21:55:15.781Z,13.35
2022-08-25T21:57:43.899Z,11.45
2022-08-25T22:00:13.110Z,14.48
2022-08-25T22:02:40.367Z,11.70
2022-08-25T22:05:11.434Z,13.27
2022-08-25T22:07:42.095Z,12.52
2022-08-25T22:10:16.652Z,12.85
2022-08-25T22:12:45.170Z,12.95
2022-08-25T22:15:13.536Z,11.35
2022-08-25T22:17:41.140Z,12.88
2022-08-25T22:20:09.497Z,14.90
2022-08-25T22:22:36.720Z,11.85
2022-08-25T22:25:04.566Z,16.58
2022-08-25T22:27:32.983Z,14.15
2022-08-25T22:30:01.237Z,11.40
2022-08-25T22:32:29.149Z,12.55
2022-08-25T22:34:56.444Z,13.18
2022-08-25T22:37:23.576Z,11.27
2022-08-25T22:39:50.742Z,15.55
2022-08-25T22:42:18.533Z,11.23
2022-08-25T22:44:45.706Z,11.70
2022-08-25T22:47:12.843Z,10.88
2022-08-25T22:49:40.326Z,13.60
2022-08-25T22:52:07.515Z,15.27
2022-08-25T22:54:39.196Z,11.45
2022-08-25T22:57:07.039Z,13.35
2022-08-25T22:59:34.265Z,12.50
2022-08-25T23:02:01.546Z,11.93
2022-08-25T23:04:28.924Z,13.80
2022-08-25T23:06:56.116Z,11.82
2022-08-25T23:09:24.810Z,10.75
2022-08-25T23:11:52.326Z,15.52
2022-08-25T23:14:20.034Z,11.35
2022-08-25T23:16:49.887Z,14.57
2022-08-25T23:19:18.000Z,13.02
2022-08-25T23:22:04.444Z,11.73
2022-08-25T23:24:32.197Z,14.77
2022-08-25T23:27:00.584Z,12.30
2022-08-25T23:29:28.263Z,13.80
2022-08-25T23:31:55.960Z,10.50
2022-08-25T23:34:23.540Z,14.65
2022-08-25T23:36:51.005Z,11.52
2022-08-25T23:39:18.827Z,12.32
2022-08-25T23:41:49.298Z,12.10
2022-08-25T23:44:17.463Z,10.88
2022-08-25T23:46:47.144Z,11.30
2022-08-25T23:49:18.549Z,12.35
2022-08-25T23:51:46.765Z,13.70
2022-08-25T23:54:14.719Z,13.65
2022-08-25T23:56:44.817Z,9.27
2022-08-25T23:59:19.914Z,12.38
